createdAt,value
2023-04-10T00:00:02.587Z,0
2023-04-10T00:15:03.149Z,0
2023-04-10T00:30:02.474Z,0
2023-04-10T00:45:03.077Z,0
2023-04-10T01:00:02.356Z,0
2023-04-10T01:15:02.771Z,0
2023-04-10T01:30:02.185Z,0
2023-04-10T01:45:02.660Z,0
2023-04-10T02:00:03.298Z,0
2023-04-10T02:15:02.552Z,0
2023-04-10T02:30:03.193Z,0
2023-04-10T02:45:02.415Z,0
2023-04-10T03:00:02.847Z,0
2023-04-10T03:15:02.286Z,0
2023-04-10T03:30:02.736Z,0
2023-04-10T03:45:03.197Z,0
2023-04-10T04:00:02.621Z,0
2023-04-10T04:15:03.180Z,0
2023-04-10T04:45:02.936Z,0
2023-04-10T05:00:02.391Z,7
2023-04-10T05:15:02.819Z,22
2023-04-10T05:30:02.274Z,43
2023-04-10T05:45:02.711Z,68
2023-04-10T06:00:03.217Z,74
2023-04-10T06:15:02.623Z,88
2023-04-10T06:30:03.217Z,118
2023-04-10T06:45:02.449Z,187
2023-04-10T07:00:03.174Z,155
2023-04-10T07:15:02.319Z,296
2023-04-10T07:30:02.729Z,334
2023-04-10T07:45:03.253Z,387
2023-04-10T08:00:02.698Z,397
2023-04-10T08:15:03.259Z,443
2023-04-10T08:30:02.550Z,276
2023-04-10T08:45:02.947Z,453
2023-04-10T09:00:16.108Z,411
2023-04-10T09:15:02.810Z,526
2023-04-10T09:30:02.275Z,540
2023-04-10T09:45:02.720Z,405
2023-04-10T10:00:03.276Z,620
2023-04-10T10:15:02.586Z,523
2023-04-10T10:30:11.871Z,543
2023-04-10T10:45:02.467Z,422
2023-04-10T11:00:02.906Z,383
2023-04-10T11:15:02.487Z,407
2023-04-10T11:30:02.818Z,478
2023-04-10T11:45:02.280Z,404
2023-04-10T12:00:02.666Z,495
2023-04-10T12:15:03.280Z,465
2023-04-10T12:30:02.518Z,413
2023-04-10T12:45:02.984Z,517
2023-04-10T13:00:02.449Z,440
2023-04-10T13:15:02.924Z,260
2023-04-10T13:30:02.322Z,345
2023-04-10T13:45:02.764Z,248
2023-04-10T14:00:03.299Z,225
2023-04-10T14:15:02.582Z,291
2023-04-10T14:30:03.284Z,230
2023-04-10T14:45:02.509Z,125
2023-04-10T15:00:02.918Z,122
2023-04-10T15:15:02.391Z,81
2023-04-10T15:30:02.802Z,73
2023-04-10T15:45:03.317Z,60
2023-04-10T16:00:02.809Z,33
2023-04-10T16:15:02.319Z,19
2023-04-10T16:30:02.646Z,36
2023-04-10T16:45:03.036Z,33
2023-04-10T17:00:02.515Z,43
2023-04-10T17:15:02.907Z,18
2023-04-10T17:30:02.365Z,12
2023-04-10T17:45:02.789Z,0
2023-04-10T18:00:03.338Z,0
2023-04-10T18:15:02.702Z,0
2023-04-10T18:30:03.355Z,0
2023-04-10T18:45:02.560Z,0
2023-04-10T19:00:03.004Z,0
2023-04-10T19:15:02.436Z,0
2023-04-10T19:30:02.907Z,0
2023-04-10T19:45:02.369Z,0
2023-04-10T20:00:02.754Z,0
2023-04-10T20:15:03.363Z,0
2023-04-10T20:30:02.624Z,0
2023-04-10T20:45:03.088Z,0
2023-04-10T21:00:02.509Z,0
2023-04-10T21:15:02.995Z,0
2023-04-10T21:30:02.400Z,0
2023-04-10T21:45:02.846Z,0
2023-04-10T22:00:02.408Z,0
2023-04-10T22:15:02.692Z,0
2023-04-10T22:30:04.517Z,0
2023-04-10T22:45:03.617Z,0
2023-04-10T23:00:03.050Z,0
2023-04-10T23:15:02.482Z,0
2023-04-10T23:30:02.927Z,0
2023-04-10T23:45:02.409Z,0
